Avel An Heol — FGPA — position and weather

sailwx.info

Track history (hours):
 
Tides and Currents Weather Stations Pressure Air Temp Water Temp Dewpoint Dewpoint Depression Visibility Wind Speed Wind Dir Waves Ship Positions

Avel An Heol

Last reported at 2018-May-20 02:48 UTC. Time now 2018-May-20 21:46 UTC.
Position N 47°48' W 004°17'.

Type: Fishing. MMSI: 228925000.

Date/timePositionNaut miles runAvg speedWind from/ knotsBaromVisibWave heightAir tempDewpointWater temp
2018-May-20 02:48N 47°48' W 004°17'0 0.0
2018-May-18 22:38N 47°48' W 004°17'0 0.0
2018-May-18 22:27N 47°48' W 004°17'15 1.0
2018-May-18 08:06N 47°47' W 004°39'0 3.4
2018-May-18 08:00N 47°47' W 004°38'1 0.7
2018-May-18 06:18N 47°48' W 004°37'1 1.4
2018-May-18 05:55N 47°49' W 004°38'1 1.5
2018-May-18 05:08N 47°47' W 004°38'0 3.4
2018-May-18 05:00N 47°48' W 004°38'14 0.3
2018-May-16 04:05N 47°48' W 004°17'0 0.0
2018-May-16 03:38N 47°48' W 004°17'0 0.0
2018-May-16 03:30N 47°48' W 004°17'0 0.0
2018-May-16 02:52N 47°48' W 004°17'0 0.0
2018-May-16 02:21N 47°48' W 004°17'0 0.0
2018-May-16 01:57N 47°48' W 004°17'0 0.0
2018-May-16 01:30N 47°48' W 004°17'0 0.0
2018-May-16 00:59N 47°48' W 004°17'0 0.0
2018-May-16 00:30N 47°48' W 004°17'0 0.0
2018-May-16 00:00N 47°48' W 004°17'0 0.0
2018-May-15 22:18N 47°48' W 004°17'0 0.0
2018-May-15 05:00N 47°48' W 004°17'0 0.0
2018-May-15 04:30N 47°48' W 004°17'0 0.0
2018-May-15 04:00N 47°48' W 004°17'0 0.0
2018-May-15 03:22N 47°48' W 004°17'0 0.0
2018-May-15 02:56N 47°48' W 004°17'0 0.0
2018-May-15 02:15N 47°48' W 004°17'0 0.0
2018-May-15 01:59N 47°48' W 004°17'0 0.0
2018-May-15 01:22N 47°48' W 004°17'0 0.0
2018-May-15 00:59N 47°48' W 004°17'0 0.0
2018-May-15 00:25N 47°48' W 004°17'0 0.0
2018-May-15 00:00N 47°48' W 004°17'0 0.0
2018-May-14 23:30N 47°48' W 004°17'0 0.0
2018-May-14 22:43N 47°48' W 004°17'0 0.0
2018-May-14 22:18N 47°48' W 004°17'0 0.0
2018-May-14 03:39N 47°48' W 004°17'  
2018-May-11 14:48N 47°48' W 004°17'4 2.1
2018-May-11 12:48N 47°44' W 004°21'0 0.0
2018-May-11 05:48N 47°44' W 004°21'0 0.4
2018-May-11 04:48N 47°45' W 004°21'4 0.7
2018-May-10 22:48N 47°48' W 004°17'3 0.3
2018-May-10 13:48N 47°46' W 004°20'  
Track history (hours):
 
Tides and Currents Weather Stations Pressure Air Temp Water Temp Dewpoint Dewpoint Depression Visibility Wind Speed Wind Dir Waves Ship Positions

Avel An Heol

Last reported at 2018-May-20 02:48 UTC. Time now 2018-May-20 21:46 UTC.
Position N 47°48' W 004°17'.

Type: Fishing. MMSI: 228925000.

Date/timePositionNaut miles runAvg speedWind from/ knotsBaromVisibWave heightAir tempDewpointWater temp
2018-May-20 02:48N 47°48' W 004°17'0 0.0
2018-May-18 22:38N 47°48' W 004°17'0 0.0
2018-May-18 22:27N 47°48' W 004°17'15 1.0
2018-May-18 08:06N 47°47' W 004°39'0 3.4
2018-May-18 08:00N 47°47' W 004°38'1 0.7
2018-May-18 06:18N 47°48' W 004°37'1 1.4
2018-May-18 05:55N 47°49' W 004°38'1 1.5
2018-May-18 05:08N 47°47' W 004°38'0 3.4
2018-May-18 05:00N 47°48' W 004°38'14 0.3
2018-May-16 04:05N 47°48' W 004°17'0 0.0
2018-May-16 03:38N 47°48' W 004°17'0 0.0
2018-May-16 03:30N 47°48' W 004°17'0 0.0
2018-May-16 02:52N 47°48' W 004°17'0 0.0
2018-May-16 02:21N 47°48' W 004°17'0 0.0
2018-May-16 01:57N 47°48' W 004°17'0 0.0
2018-May-16 01:30N 47°48' W 004°17'0 0.0
2018-May-16 00:59N 47°48' W 004°17'0 0.0
2018-May-16 00:30N 47°48' W 004°17'0 0.0
2018-May-16 00:00N 47°48' W 004°17'0 0.0
2018-May-15 22:18N 47°48' W 004°17'0 0.0
2018-May-15 05:00N 47°48' W 004°17'0 0.0
2018-May-15 04:30N 47°48' W 004°17'0 0.0
2018-May-15 04:00N 47°48' W 004°17'0 0.0
2018-May-15 03:22N 47°48' W 004°17'0 0.0
2018-May-15 02:56N 47°48' W 004°17'0 0.0
2018-May-15 02:15N 47°48' W 004°17'0 0.0
2018-May-15 01:59N 47°48' W 004°17'0 0.0
2018-May-15 01:22N 47°48' W 004°17'0 0.0
2018-May-15 00:59N 47°48' W 004°17'0 0.0
2018-May-15 00:25N 47°48' W 004°17'0 0.0
2018-May-15 00:00N 47°48' W 004°17'0 0.0
2018-May-14 23:30N 47°48' W 004°17'0 0.0
2018-May-14 22:43N 47°48' W 004°17'0 0.0
2018-May-14 22:18N 47°48' W 004°17'0 0.0
2018-May-14 03:39N 47°48' W 004°17'  
2018-May-11 14:48N 47°48' W 004°17'4 2.1
2018-May-11 12:48N 47°44' W 004°21'0 0.0
2018-May-11 05:48N 47°44' W 004°21'0 0.4
2018-May-11 04:48N 47°45' W 004°21'4 0.7
2018-May-10 22:48N 47°48' W 004°17'3 0.3
2018-May-10 13:48N 47°46' W 004°20'  

Dump ship's entire track history